Time;durP1;ratioP1;P1;durP2;ratioP2;P2;SDS_P1;SDS_P2;PMS_P1;PMS_P2;Temp;Humidity;BMP_temperature;BMP_pressure;BME280_temperature;BME280_humidity;BME280_pressure;Samples;Min_cycle;Max_cycle;Signal;HPM_P1;HPM_P2
2022/05/07 00:01:58;;;;;;;5.47;3.50;;;9.50;99.90;;;;;;7385272;19;20316;-72
2022/05/07 00:04:24;;;;;;;3.53;3.23;;;9.50;99.90;;;;;;7381443;19;20705;-74
2022/05/07 00:06:49;;;;;;;7.03;3.57;;;9.50;99.90;;;;;;7386437;19;20923;-73
2022/05/07 00:09:15;;;;;;;3.20;2.90;;;9.40;99.90;;;;;;7387773;19;20386;-72
2022/05/07 00:11:41;;;;;;;3.73;3.43;;;9.40;99.90;;;;;;7388183;19;20309;-73
2022/05/07 00:14:06;;;;;;;4.28;3.88;;;9.50;99.90;;;;;;7387035;19;20343;-72
2022/05/07 00:19:17;;;;;;;4.30;3.90;;;9.40;99.90;;;;;;7389213;19;20328;-72
2022/05/07 00:21:43;;;;;;;4.80;4.20;;;9.40;99.90;;;;;;7387667;19;20396;-73
2022/05/07 00:24:12;;;;;;;3.95;3.65;;;9.30;99.90;;;;;;7383624;19;20600;-73
2022/05/07 00:26:37;;;;;;;3.83;3.53;;;9.40;99.90;;;;;;7385837;19;20307;-73
2022/05/07 00:29:03;;;;;;;3.97;3.57;;;9.40;99.90;;;;;;7387072;19;20324;-72
2022/05/07 00:31:28;;;;;;;4.07;3.40;;;9.40;99.90;;;;;;7386636;19;20344;-72
2022/05/07 00:33:54;;;;;;;3.77;3.40;;;9.50;99.90;;;;;;7384960;19;20358;-72
2022/05/07 00:36:20;;;;;;;5.03;4.18;;;9.50;99.90;;;;;;7382314;19;20469;-74
2022/05/07 00:38:46;;;;;;;3.85;3.55;;;9.40;99.90;;;;;;7387355;19;20372;-72
2022/05/07 00:41:12;;;;;;;3.90;3.50;;;9.30;99.90;;;;;;7384157;19;20356;-74
2022/05/07 00:43:39;;;;;;;3.53;3.23;;;9.30;99.90;;;;;;7387048;19;20320;-76
2022/05/07 00:46:05;;;;;;;3.70;3.38;;;9.30;99.90;;;;;;7381922;19;20324;-72
2022/05/07 00:48:30;;;;;;;3.35;3.05;;;9.30;99.90;;;;;;7386807;19;20344;-72
2022/05/07 00:53:41;;;;;;;3.90;3.50;;;9.30;99.90;;;;;;7279813;19;2004206;-73
2022/05/07 00:56:07;;;;;;;3.50;3.20;;;9.30;99.90;;;;;;7381496;19;20341;-72
2022/05/07 00:58:34;;;;;;;3.70;3.40;;;9.20;99.90;;;;;;7386471;19;20344;-73
2022/05/07 01:01:00;;;;;;;3.65;3.35;;;9.20;99.90;;;;;;7379982;19;20316;-73
2022/05/07 01:03:25;;;;;;;3.70;3.40;;;9.20;99.90;;;;;;7386518;19;20354;-72
2022/05/07 01:05:51;;;;;;;3.60;3.30;;;9.10;99.90;;;;;;7381696;19;20348;-74
2022/05/07 01:08:18;;;;;;;4.05;3.65;;;9.10;99.90;;;;;;7386499;19;20328;-73
2022/05/07 01:10:44;;;;;;;3.35;3.05;;;9.10;99.90;;;;;;7384423;19;21008;-72
2022/05/07 01:13:10;;;;;;;3.85;2.90;;;9.10;99.90;;;;;;7383859;19;20372;-73
2022/05/07 01:15:45;;;;;;;3.40;3.10;;;9.10;99.90;;;;;;7358907;19;20368;-74
2022/05/07 01:18:12;;;;;;;3.75;3.45;;;9.20;99.90;;;;;;7385774;19;20368;-73
2022/05/07 01:20:38;;;;;;;3.63;3.33;;;9.10;99.90;;;;;;7381921;19;20340;-73
2022/05/07 01:23:05;;;;;;;4.25;3.85;;;9.10;99.90;;;;;;7380746;19;20335;-72
2022/05/07 01:25:30;;;;;;;4.10;3.42;;;9.10;99.90;;;;;;7381471;19;20991;-73
2022/05/07 01:27:57;;;;;;;3.67;3.30;;;9.00;99.90;;;;;;7381358;19;20397;-72
2022/05/07 01:30:23;;;;;;;4.40;3.83;;;9.00;99.90;;;;;;7380847;19;20348;-73
2022/05/07 01:32:50;;;;;;;5.38;3.78;;;9.00;99.90;;;;;;7385220;19;20313;-72
2022/05/07 01:35:15;;;;;;;3.95;3.55;;;9.10;99.90;;;;;;7380032;19;20733;-73
2022/05/07 01:37:43;;;;;;;3.63;3.33;;;8.90;99.90;;;;;;7382533;19;20904;-72
2022/05/07 01:40:11;;;;;;;3.83;3.42;;;8.80;99.90;;;;;;7382709;19;20360;-73
2022/05/07 01:42:41;;;;;;;4.37;3.97;;;8.80;99.90;;;;;;7382629;19;20745;-71
2022/05/07 01:45:09;;;;;;;6.30;3.40;;;8.80;99.90;;;;;;7376796;19;20332;-73
2022/05/07 01:50:25;;;;;;;4.53;4.05;;;8.70;99.90;;;;;;7279281;19;2004305;-72
2022/05/07 01:52:51;;;;;;;5.30;4.13;;;8.70;99.90;;;;;;7384300;19;20951;-72
2022/05/07 01:55:17;;;;;;;4.50;3.90;;;8.70;99.90;;;;;;7381806;19;20355;-73
2022/05/07 01:57:44;;;;;;;4.30;3.60;;;8.70;99.90;;;;;;7383631;19;20332;-73
2022/05/07 02:00:11;;;;;;;4.00;3.60;;;8.60;99.90;;;;;;7378586;19;20329;-72
2022/05/07 02:02:39;;;;;;;3.58;3.28;;;8.60;99.90;;;;;;7383004;19;20333;-72
2022/05/07 02:05:14;;;;;;;4.35;3.85;;;8.60;99.90;;;;;;7379072;19;20357;-72
2022/05/07 02:07:39;;;;;;;4.10;3.67;;;8.60;99.90;;;;;;7384096;19;20313;-73
2022/05/07 02:10:06;;;;;;;3.23;2.93;;;8.60;99.90;;;;;;7382042;19;20417;-73
2022/05/07 02:12:32;;;;;;;3.00;2.80;;;8.50;99.90;;;;;;7382580;19;20348;-73
2022/05/07 02:14:59;;;;;;;3.33;3.03;;;8.50;99.90;;;;;;7378120;19;20843;-72
2022/05/07 02:17:25;;;;;;;3.85;3.55;;;8.50;99.90;;;;;;7383282;19;20328;-73
2022/05/07 02:19:51;;;;;;;3.87;3.20;;;8.60;99.90;;;;;;7379708;19;20336;-73
2022/05/07 02:22:16;;;;;;;3.28;2.97;;;8.60;99.90;;;;;;7383272;19;20329;-73
2022/05/07 02:24:42;;;;;;;3.37;2.97;;;8.50;99.90;;;;;;7379011;19;20386;-73
2022/05/07 02:27:08;;;;;;;3.75;3.40;;;8.50;99.90;;;;;;7381056;19;20860;-73
2022/05/07 02:29:33;;;;;;;5.33;3.33;;;8.50;99.90;;;;;;7383278;19;20345;-72
2022/05/07 02:32:06;;;;;;;3.67;3.37;;;8.40;99.90;;;;;;7380914;19;20352;-72
2022/05/07 02:34:37;;;;;;;3.60;3.30;;;8.30;99.90;;;;;;7379343;19;20351;-72
2022/05/07 02:37:07;;;;;;;4.28;3.85;;;8.30;99.90;;;;;;7378469;19;20359;-73
2022/05/07 02:39:33;;;;;;;3.78;3.20;;;8.20;99.90;;;;;;7382288;19;20419;-73
2022/05/07 02:44:44;;;;;;;3.92;3.58;;;8.20;99.90;;;;;;7378245;19;20313;-72
2022/05/07 02:47:10;;;;;;;5.07;3.50;;;8.20;99.90;;;;;;7380282;19;20353;-72
2022/05/07 02:49:35;;;;;;;3.50;3.20;;;8.10;99.90;;;;;;7382873;19;20352;-72
2022/05/07 02:52:02;;;;;;;3.80;3.45;;;8.10;99.90;;;;;;7382220;19;20317;-73
2022/05/07 02:54:27;;;;;;;5.28;4.28;;;8.00;99.90;;;;;;7379645;19;20348;-72
2022/05/07 02:56:54;;;;;;;3.60;3.30;;;8.00;99.90;;;;;;7380799;19;20698;-72
2022/05/07 02:59:20;;;;;;;4.50;3.80;;;7.90;99.90;;;;;;7382718;19;20376;-73
2022/05/07 03:01:47;;;;;;;3.90;3.40;;;7.90;99.90;;;;;;7377939;19;20358;-72
2022/05/07 03:04:13;;;;;;;4.95;3.40;;;7.90;99.90;;;;;;7379360;19;20407;-73
2022/05/07 03:06:39;;;;;;;3.53;3.22;;;8.00;99.90;;;;;;7378083;19;20340;-72
2022/05/07 03:09:06;;;;;;;3.40;3.10;;;7.80;99.90;;;;;;7383550;19;20344;-72
2022/05/07 03:11:33;;;;;;;4.70;3.97;;;8.00;99.90;;;;;;7380920;19;20317;-72
2022/05/07 03:14:00;;;;;;;4.10;3.70;;;8.00;99.90;;;;;;7379761;19;20332;-74
2022/05/07 03:16:26;;;;;;;3.53;3.22;;;7.90;99.90;;;;;;7376050;19;20415;-74
2022/05/07 03:18:52;;;;;;;3.80;3.50;;;7.90;99.90;;;;;;7382731;19;20308;-73
2022/05/07 03:21:18;;;;;;;3.63;3.33;;;7.90;99.90;;;;;;7374674;19;20419;-73
2022/05/07 03:23:46;;;;;;;3.67;3.38;;;8.00;99.90;;;;;;7363247;19;20386;-72
2022/05/07 03:26:12;;;;;;;4.28;3.78;;;8.00;99.90;;;;;;7374942;19;20767;-73
2022/05/07 03:28:39;;;;;;;3.72;3.40;;;8.10;99.90;;;;;;7377787;19;20429;-73
2022/05/07 03:31:06;;;;;;;4.00;3.00;;;8.10;99.90;;;;;;7375558;19;20339;-73
2022/05/07 03:33:32;;;;;;;3.47;3.17;;;8.20;99.90;;;;;;7379221;19;20305;-73
2022/05/07 03:35:58;;;;;;;3.87;3.53;;;8.20;99.90;;;;;;7371065;19;20399;-72
2022/05/07 03:38:24;;;;;;;3.90;3.50;;;8.40;99.90;;;;;;7378568;19;20468;-73
2022/05/07 03:40:58;;;;;;;3.90;3.50;;;8.40;99.90;;;;;;7274226;19;2004246;-72
2022/05/07 03:43:28;;;;;;;3.88;3.55;;;8.50;99.90;;;;;;7378871;19;20359;-72
2022/05/07 03:45:53;;;;;;;4.93;4.40;;;8.50;99.90;;;;;;7374654;19;20341;-73
2022/05/07 03:48:19;;;;;;;4.90;3.75;;;8.50;99.90;;;;;;7378858;19;20320;-73
2022/05/07 03:50:49;;;;;;;3.80;3.15;;;8.50;99.90;;;;;;7376702;19;20455;-72
2022/05/07 03:53:30;;;;;;;3.65;3.35;;;8.50;99.90;;;;;;7375952;19;20344;-74
2022/05/07 03:56:03;;;;;;;3.50;3.20;;;8.60;99.90;;;;;;7375756;19;20420;-73
2022/05/07 03:58:33;;;;;;;3.83;3.50;;;8.70;99.90;;;;;;7377351;19;20352;-73
2022/05/07 04:00:59;;;;;;;3.85;3.55;;;8.80;99.90;;;;;;7377727;19;20312;-73
2022/05/07 04:03:26;;;;;;;4.10;3.50;;;8.90;99.90;;;;;;7374644;19;20368;-73
2022/05/07 04:05:55;;;;;;;3.97;3.67;;;8.90;99.90;;;;;;7376209;19;20317;-73
2022/05/07 04:08:23;;;;;;;4.47;4.07;;;9.00;99.90;;;;;;7378753;19;20907;-73
2022/05/07 04:10:49;;;;;;;3.93;3.63;;;8.90;99.90;;;;;;7375967;19;20797;-73
2022/05/07 04:13:18;;;;;;;4.63;4.22;;;8.90;99.90;;;;;;7377402;19;20901;-75
2022/05/07 04:15:48;;;;;;;4.15;3.80;;;8.90;99.90;;;;;;7374307;19;20341;-73
2022/05/07 04:18:15;;;;;;;4.38;3.97;;;8.80;99.90;;;;;;7375619;19;20598;-73
2022/05/07 04:20:41;;;;;;;4.10;3.63;;;8.80;99.90;;;;;;7376434;19;20352;-74
2022/05/07 04:23:11;;;;;;;4.45;4.05;;;8.90;99.90;;;;;;7372301;19;20341;-74
2022/05/07 04:25:38;;;;;;;4.45;3.63;;;9.00;99.90;;;;;;7374331;19;20335;-74
2022/05/07 04:28:04;;;;;;;3.88;3.47;;;9.10;99.90;;;;;;7376992;19;20325;-73
2022/05/07 04:30:29;;;;;;;3.53;3.20;;;9.30;99.90;;;;;;7375536;19;21445;-73
2022/05/07 04:32:56;;;;;;;4.00;3.60;;;9.40;99.90;;;;;;7376422;19;20367;-73
2022/05/07 04:35:22;;;;;;;4.07;3.67;;;9.60;99.90;;;;;;7377876;19;20341;-73
2022/05/07 04:37:48;;;;;;;5.07;4.57;;;9.70;99.90;;;;;;7382885;19;20347;-74
2022/05/07 04:40:15;;;;;;;6.90;4.78;;;9.80;99.90;;;;;;7382735;19;20297;-74
2022/05/07 04:42:43;;;;;;;5.00;4.60;;;9.80;99.90;;;;;;7385997;19;20441;-73
2022/05/07 04:45:10;;;;;;;5.50;5.00;;;9.80;99.90;;;;;;7378609;19;20762;-74
2022/05/07 04:47:51;;;;;;;5.25;4.75;;;9.70;99.90;;;;;;7381267;19;20320;-73
2022/05/07 04:50:30;;;;;;;5.25;4.75;;;9.70;99.90;;;;;;7379943;19;20879;-74
2022/05/07 04:53:25;;;;;;;4.40;4.00;;;9.70;99.90;;;;;;7279698;19;2004614;-74
2022/05/07 04:55:52;;;;;;;4.80;4.30;;;9.80;99.90;;;;;;7380944;19;20440;-73
2022/05/07 04:58:21;;;;;;;4.68;4.25;;;9.90;99.90;;;;;;7383802;19;20421;-73
2022/05/07 05:00:48;;;;;;;4.32;3.85;;;10.10;99.90;;;;;;7380286;19;20317;-73
2022/05/07 05:03:20;;;;;;;4.32;3.75;;;10.20;99.90;;;;;;7381288;19;20387;-74
2022/05/07 05:06:04;;;;;;;4.50;4.10;;;10.30;99.90;;;;;;7274808;19;2004229;-73
2022/05/07 05:08:44;;;;;;;4.55;4.15;;;10.40;99.90;;;;;;7278981;19;2004704;-73
2022/05/07 05:11:10;;;;;;;4.53;4.13;;;10.50;99.90;;;;;;7381326;19;21412;-74
2022/05/07 05:13:35;;;;;;;4.87;4.40;;;10.60;99.90;;;;;;7378776;19;20372;-74
2022/05/07 05:16:01;;;;;;;5.30;4.60;;;10.70;99.90;;;;;;7377609;19;20352;-73
2022/05/07 05:18:41;;;;;;;5.00;4.50;;;10.90;99.90;;;;;;7277048;19;2005085;-73
2022/05/07 05:21:08;;;;;;;3.50;3.20;;;11.10;99.90;;;;;;7379264;19;20348;-73
2022/05/07 05:23:51;;;;;;;4.40;4.00;;;11.20;99.90;;;;;;7277924;19;2004183;-74
2022/05/07 05:26:18;;;;;;;3.50;3.20;;;11.50;99.90;;;;;;7374998;19;20357;-73
2022/05/07 05:28:50;;;;;;;4.10;3.70;;;11.70;99.90;;;;;;7381760;19;20329;-73
2022/05/07 05:31:15;;;;;;;4.30;3.87;;;11.90;99.90;;;;;;7379270;19;20957;-73
2022/05/07 05:33:45;;;;;;;3.88;3.58;;;12.10;99.90;;;;;;7379256;19;20357;-74
2022/05/07 05:36:17;;;;;;;3.60;3.30;;;12.20;99.90;;;;;;7376849;19;20337;-74
2022/05/07 05:38:46;;;;;;;5.38;3.78;;;12.40;99.90;;;;;;7378592;19;20329;-74
2022/05/07 05:41:14;;;;;;;4.03;3.58;;;12.60;99.90;;;;;;7380651;19;20329;-74
2022/05/07 05:43:44;;;;;;;3.65;3.33;;;12.70;99.90;;;;;;7380465;19;20357;-74
2022/05/07 05:46:10;;;;;;;3.97;3.63;;;12.80;99.90;;;;;;7374390;19;20332;-74
2022/05/07 05:48:36;;;;;;;3.33;3.03;;;13.00;99.90;;;;;;7378604;19;20309;-74
2022/05/07 05:51:04;;;;;;;3.15;2.90;;;13.10;99.90;;;;;;7377164;19;20333;-74
2022/05/07 05:53:33;;;;;;;3.78;3.47;;;13.20;99.90;;;;;;7377193;19;20409;-74
2022/05/07 05:56:00;;;;;;;4.80;3.65;;;13.30;99.90;;;;;;7374864;19;20297;-74
2022/05/07 05:58:35;;;;;;;4.07;3.67;;;13.40;99.90;;;;;;7275063;19;2004324;-74
2022/05/07 06:01:02;;;;;;;4.43;3.53;;;13.50;99.90;;;;;;7375257;19;20814;-74
2022/05/07 06:03:29;;;;;;;5.22;3.55;;;13.70;99.90;;;;;;7376417;19;20368;-75
2022/05/07 06:05:55;;;;;;;3.67;3.37;;;13.90;99.90;;;;;;7372924;19;20315;-74
2022/05/07 06:08:20;;;;;;;3.72;3.30;;;14.10;99.90;;;;;;7374112;19;20344;-74
2022/05/07 06:10:46;;;;;;;3.33;3.03;;;14.30;99.90;;;;;;7377342;19;20375;-74
2022/05/07 06:13:12;;;;;;;3.15;2.90;;;14.40;99.90;;;;;;7377104;19;20309;-74
2022/05/07 06:15:45;;;;;;;4.20;3.00;;;14.60;99.90;;;;;;7371864;19;20347;-74
2022/05/07 06:18:11;;;;;;;3.70;3.20;;;14.70;99.90;;;;;;7377274;19;20345;-74
2022/05/07 06:20:37;;;;;;;3.10;2.77;;;14.80;99.90;;;;;;7379191;19;20319;-74
2022/05/07 06:23:02;;;;;;;3.83;3.05;;;14.90;99.90;;;;;;7379102;19;20812;-75
2022/05/07 06:28:22;;;;;;;5.05;3.63;;;15.10;99.90;;;;;;7375470;19;20336;-77
2022/05/07 06:30:49;;;;;;;3.65;3.30;;;15.20;99.90;;;;;;7370505;19;20323;-75
2022/05/07 06:33:17;;;;;;;4.38;3.20;;;15.50;99.90;;;;;;7376542;19;20891;-74
2022/05/07 06:35:49;;;;;;;6.97;3.75;;;15.60;99.90;;;;;;7266966;19;2004593;-76
2022/05/07 06:38:19;;;;;;;3.50;3.20;;;15.70;99.90;;;;;;7376107;19;20332;-74
2022/05/07 06:40:50;;;;;;;3.55;3.25;;;15.90;99.90;;;;;;7371184;19;20332;-75
2022/05/07 06:43:16;;;;;;;7.18;3.53;;;16.10;99.90;;;;;;7369964;19;20352;-76
2022/05/07 06:46:03;;;;;;;4.45;3.50;;;16.40;99.90;;;;;;7365595;19;20860;-75
2022/05/07 06:48:32;;;;;;;3.97;3.58;;;16.40;99.90;;;;;;7372600;19;20416;-78
2022/05/07 06:51:04;;;;;;;4.40;3.58;;;16.50;99.90;;;;;;7373869;19;20320;-78
2022/05/07 06:53:30;;;;;;;3.58;3.28;;;16.60;99.90;;;;;;7373156;19;20365;-77
2022/05/07 06:55:55;;;;;;;3.60;3.30;;;16.90;99.90;;;;;;7370904;19;20671;-76
2022/05/07 06:58:26;;;;;;;2.75;2.55;;;17.20;99.90;;;;;;7373655;19;20381;-77
2022/05/07 07:00:51;;;;;;;3.50;3.20;;;17.30;99.90;;;;;;7372492;19;20340;-76
2022/05/07 07:03:17;;;;;;;4.28;3.50;;;17.60;99.90;;;;;;7374530;19;20927;-76
2022/05/07 07:05:43;;;;;;;3.97;3.63;;;17.70;99.90;;;;;;7372763;19;20317;-76
2022/05/07 07:08:11;;;;;;;3.00;2.67;;;17.90;99.90;;;;;;7374389;19;21039;-76
2022/05/07 07:10:36;;;;;;;4.32;2.90;;;18.10;99.90;;;;;;7375267;19;20875;-77
2022/05/07 07:13:02;;;;;;;3.42;2.92;;;18.30;99.90;;;;;;7372909;19;20301;-77
2022/05/07 07:15:27;;;;;;;2.77;2.57;;;18.40;99.90;;;;;;7373550;19;20337;-76
2022/05/07 07:17:53;;;;;;;2.80;2.60;;;18.50;99.90;;;;;;7375316;19;20995;-76
2022/05/07 07:20:19;;;;;;;2.67;2.27;;;18.60;99.90;;;;;;7374272;19;20346;-76
2022/05/07 07:22:46;;;;;;;2.78;2.53;;;18.70;99.90;;;;;;7374676;19;20857;-79
2022/05/07 07:25:12;;;;;;;2.67;2.47;;;18.80;99.90;;;;;;7373627;19;20380;-79
2022/05/07 07:27:37;;;;;;;2.53;2.23;;;18.70;99.90;;;;;;7374143;19;20412;-77
2022/05/07 07:30:03;;;;;;;4.83;2.53;;;18.90;99.90;;;;;;7375816;19;20305;-79
2022/05/07 07:32:29;;;;;;;2.55;2.20;;;19.10;99.90;;;;;;7375315;19;20300;-78
2022/05/07 07:34:55;;;;;;;2.50;2.30;;;19.20;99.90;;;;;;7372873;19;20392;-77
2022/05/07 07:37:20;;;;;;;3.13;2.17;;;19.30;99.90;;;;;;7372697;19;20340;-78
2022/05/07 07:39:46;;;;;;;2.88;2.17;;;19.30;99.90;;;;;;7372744;19;20389;-78
2022/05/07 07:42:12;;;;;;;5.27;2.30;;;19.30;99.90;;;;;;7375166;19;20333;-79
2022/05/07 07:44:37;;;;;;;2.93;2.03;;;19.60;99.90;;;;;;7370908;19;20352;-78
2022/05/07 07:49:47;;;;;;;2.15;1.95;;;20.00;99.90;;;;;;7373682;19;20320;-79
2022/05/07 07:52:15;;;;;;;2.00;1.85;;;20.20;99.90;;;;;;7376058;19;20320;-78
2022/05/07 07:54:41;;;;;;;1.80;1.70;;;20.30;99.90;;;;;;7369655;19;20893;-78
2022/05/07 07:57:07;;;;;;;2.00;1.80;;;20.20;99.90;;;;;;7373723;19;20363;-81
2022/05/07 07:59:33;;;;;;;4.72;1.80;;;20.20;99.90;;;;;;7372655;19;20979;-78
2022/05/07 08:01:59;;;;;;;2.88;1.88;;;20.20;99.90;;;;;;7376784;19;20356;-79
2022/05/07 08:04:27;;;;;;;3.00;1.90;;;20.30;99.90;;;;;;7371331;19;20800;-78
2022/05/07 08:12:22;;;;;;;22.50;4.65;;;20.80;99.90;;;;;;7381989;19;20341;-80
2022/05/07 08:14:47;;;;;;;3.00;1.90;;;20.80;99.80;;;;;;7377398;19;20711;-81
2022/05/07 08:17:14;;;;;;;2.17;1.80;;;21.00;99.70;;;;;;7357290;19;20351;-78
2022/05/07 08:19:40;;;;;;;4.43;1.88;;;21.10;99.60;;;;;;7378983;19;20349;-78
2022/05/07 08:22:05;;;;;;;2.70;1.77;;;21.30;99.00;;;;;;7382439;19;20671;-82
2022/05/07 08:24:31;;;;;;;1.70;1.60;;;21.50;99.50;;;;;;7380250;19;20380;-79
2022/05/07 08:26:57;;;;;;;2.40;1.80;;;21.60;97.80;;;;;;7378084;19;20348;-78
2022/05/07 08:29:23;;;;;;;1.70;1.60;;;21.70;98.80;;;;;;7381143;19;20344;-79
2022/05/07 08:31:50;;;;;;;1.88;1.77;;;22.00;97.90;;;;;;7380807;19;20341;-78
2022/05/07 08:34:16;;;;;;;2.20;2.00;;;21.80;95.10;;;;;;7376807;19;20366;-79
2022/05/07 08:36:41;;;;;;;1.83;1.63;;;21.90;95.50;;;;;;7376703;19;20317;-79
2022/05/07 08:39:07;;;;;;;3.08;1.65;;;22.20;95.00;;;;;;7380273;19;20339;-79
2022/05/07 08:41:32;;;;;;;1.77;1.45;;;22.20;94.60;;;;;;7378848;19;20421;-78
2022/05/07 08:43:58;;;;;;;2.10;1.53;;;22.20;92.20;;;;;;7381087;19;20436;-78
2022/05/07 08:46:24;;;;;;;2.17;1.97;;;22.30;93.00;;;;;;7374308;19;20373;-78
2022/05/07 08:48:51;;;;;;;1.75;1.65;;;22.50;93.30;;;;;;7344714;19;20324;-78
2022/05/07 08:51:18;;;;;;;2.67;1.63;;;22.70;91.50;;;;;;7386637;19;20345;-79
2022/05/07 08:53:44;;;;;;;1.40;1.30;;;22.50;90.30;;;;;;7382156;19;21050;-80
2022/05/07 08:56:14;;;;;;;1.73;1.40;;;22.80;90.40;;;;;;7377224;19;20337;-78
2022/05/07 08:58:46;;;;;;;1.57;1.40;;;22.90;90.60;;;;;;7380530;19;20323;-80
2022/05/07 09:01:11;;;;;;;1.40;1.30;;;22.60;85.50;;;;;;7376186;19;20311;-79
2022/05/07 09:03:45;;;;;;;2.63;1.60;;;22.70;86.30;;;;;;7380650;19;20353;-79
2022/05/07 09:06:26;;;;;;;1.58;1.48;;;22.50;88.00;;;;;;7371638;19;20729;-79
2022/05/07 09:08:53;;;;;;;1.88;1.77;;;22.80;89.70;;;;;;7378910;19;20335;-79
2022/05/07 09:11:19;;;;;;;1.23;1.17;;;22.80;86.30;;;;;;7378712;19;20343;-78
2022/05/07 09:13:46;;;;;;;1.30;1.20;;;22.80;85.30;;;;;;7381580;19;20324;-79
2022/05/07 09:16:11;;;;;;;1.73;1.50;;;23.00;81.00;;;;;;7373130;19;20364;-79
2022/05/07 09:18:37;;;;;;;1.20;1.20;;;23.20;82.60;;;;;;7380757;19;20420;-79
2022/05/07 09:24:08;;;;;;;1.40;1.30;;;23.30;82.10;;;;;;7382067;19;20329;-79
2022/05/07 09:26:34;;;;;;;1.20;1.20;;;23.40;84.90;;;;;;7277162;19;2014478;-79
2022/05/07 09:29:03;;;;;;;1.40;1.30;;;24.00;83.00;;;;;;7383563;19;20380;-78
2022/05/07 09:31:32;;;;;;;1.48;1.38;;;24.10;78.30;;;;;;7381055;19;20482;-80
2022/05/07 09:35:47;;;;;;;1.35;1.30;;;24.30;76.30;;;;;;7380898;19;20321;-80
2022/05/07 09:36:44;;;;;;;1.67;1.30;;;24.50;77.50;;;;;;7381721;19;20387;-77
2022/05/07 09:39:14;;;;;;;1.30;1.20;;;25.10;77.70;;;;;;7383610;19;20341;-77
2022/05/07 09:41:43;;;;;;;1.40;1.30;;;25.10;72.90;;;;;;7378853;19;20313;-76
2022/05/07 09:44:09;;;;;;;2.42;1.40;;;24.00;68.60;;;;;;7379735;19;20348;-77
2022/05/07 09:46:35;;;;;;;5.35;1.58;;;24.90;73.30;;;;;;7381622;19;20355;-80
2022/05/07 09:49:02;;;;;;;1.30;1.20;;;25.10;72.20;;;;;;7384380;19;20316;-76
2022/05/07 09:51:28;;;;;;;1.40;1.30;;;25.60;72.00;;;;;;7377962;19;20378;-79
2022/05/07 09:59:23;;;;;;;3.30;1.67;;;25.00;68.30;;;;;;7384584;19;20348;-76
2022/05/07 10:01:59;;;;;;;2.10;1.57;;;25.20;67.20;;;;;;7373030;19;20328;-76
2022/05/07 10:04:36;;;;;;;2.40;1.50;;;25.10;68.40;;;;;;7377898;19;20341;-78
2022/05/07 10:07:39;;;;;;;1.40;1.30;;;25.30;66.40;;;;;;7377981;19;20345;-77
2022/05/07 10:10:25;;;;;;;1.80;1.40;;;25.30;70.30;;;;;;7275012;19;2004353;-76
2022/05/07 10:12:53;;;;;;;1.50;1.40;;;25.00;66.10;;;;;;7272927;19;2004418;-77
2022/05/07 10:15:23;;;;;;;2.10;1.80;;;25.20;69.20;;;;;;7378868;19;20325;-76
2022/05/07 10:18:07;;;;;;;1.60;1.50;;;25.00;66.80;;;;;;7380368;19;20357;-76
2022/05/07 10:20:44;;;;;;;2.17;1.70;;;25.10;65.70;;;;;;7272757;19;2004562;-79
2022/05/07 10:23:13;;;;;;;2.50;1.40;;;25.00;65.90;;;;;;7276112;19;2004433;-76
2022/05/07 10:25:43;;;;;;;1.50;1.40;;;24.70;63.70;;;;;;7379841;19;20362;-76
2022/05/07 10:28:13;;;;;;;1.70;1.60;;;24.70;67.50;;;;;;7381097;19;21239;-76
2022/05/07 10:30:46;;;;;;;1.50;1.40;;;24.50;64.50;;;;;;7375625;19;20346;-76
2022/05/07 10:33:12;;;;;;;1.52;1.38;;;24.60;67.90;;;;;;7375721;19;20333;-77
2022/05/07 10:35:53;;;;;;;1.50;1.40;;;24.70;66.30;;;;;;7379180;19;20320;-78
2022/05/07 10:38:29;;;;;;;2.60;1.40;;;24.50;65.70;;;;;;7379756;19;20337;-77
2022/05/07 10:41:02;;;;;;;2.50;1.57;;;24.90;65.50;;;;;;7375748;19;20399;-77
2022/05/07 10:43:35;;;;;;;1.48;1.38;;;24.90;63.80;;;;;;7376518;19;20348;-78
2022/05/07 10:46:08;;;;;;;1.40;1.30;;;25.40;64.30;;;;;;7378522;19;20369;-77
2022/05/07 10:48:45;;;;;;;2.35;1.40;;;25.60;66.10;;;;;;7379984;19;20955;-76
2022/05/07 10:51:19;;;;;;;1.65;1.55;;;26.20;63.10;;;;;;7373918;19;20345;-76
2022/05/07 10:53:45;;;;;;;1.60;1.50;;;26.50;62.00;;;;;;7373617;19;20958;-75
2022/05/07 10:56:16;;;;;;;1.60;1.50;;;26.80;63.80;;;;;;7372939;19;20325;-76
2022/05/07 10:58:48;;;;;;;1.60;1.50;;;26.70;62.40;;;;;;7374417;19;21039;-76
2022/05/07 11:01:15;;;;;;;1.40;1.30;;;26.90;59.60;;;;;;7368673;19;20344;-76
2022/05/07 11:03:40;;;;;;;1.45;1.35;;;26.70;59.00;;;;;;7370855;19;20389;-77
2022/05/07 11:06:06;;;;;;;1.50;1.30;;;26.60;59.60;;;;;;7372301;19;20352;-76
2022/05/07 11:08:32;;;;;;;1.40;1.30;;;27.40;63.20;;;;;;7373658;19;20352;-76
2022/05/07 11:11:05;;;;;;;3.50;1.40;;;27.40;57.60;;;;;;7369065;19;20345;-77
2022/05/07 11:13:30;;;;;;;2.60;1.50;;;26.90;56.20;;;;;;7271897;19;2004558;-77
2022/05/07 11:16:06;;;;;;;1.50;1.27;;;26.80;58.80;;;;;;7374218;19;21206;-79
2022/05/07 11:18:34;;;;;;;1.50;1.40;;;27.30;59.00;;;;;;7379164;19;20355;-77
2022/05/07 11:21:03;;;;;;;3.17;1.48;;;27.50;57.00;;;;;;7367366;19;20434;-77
2022/05/07 11:23:30;;;;;;;1.85;1.45;;;27.50;58.10;;;;;;7372800;19;20860;-76
2022/05/07 11:25:56;;;;;;;1.55;1.45;;;27.30;55.70;;;;;;7370262;19;20325;-76
2022/05/07 11:28:22;;;;;;;2.47;1.23;;;27.20;55.00;;;;;;7372161;19;20348;-77
2022/05/07 11:30:51;;;;;;;1.30;1.20;;;26.70;53.60;;;;;;7367206;19;20399;-77
2022/05/07 11:33:23;;;;;;;1.85;1.23;;;26.90;55.90;;;;;;7371915;19;20349;-76
2022/05/07 11:36:06;;;;;;;1.23;1.20;;;27.00;55.70;;;;;;7369785;19;20320;-78
2022/05/07 11:38:33;;;;;;;1.48;1.23;;;26.30;56.40;;;;;;7373748;19;20368;-75
2022/05/07 11:41:09;;;;;;;2.83;1.40;;;26.50;57.50;;;;;;7368385;19;20351;-76
2022/05/07 11:46:19;;;;;;;1.55;1.45;;;26.20;54.60;;;;;;7372027;19;20759;-76
2022/05/07 11:48:45;;;;;;;1.30;1.20;;;26.40;57.30;;;;;;7373993;19;20332;-77
2022/05/07 11:51:11;;;;;;;1.40;1.30;;;27.10;58.30;;;;;;7372768;19;20344;-76
2022/05/07 11:53:37;;;;;;;1.35;1.25;;;26.70;54.50;;;;;;7373173;19;20911;-76
2022/05/07 11:56:06;;;;;;;1.60;1.50;;;27.20;55.60;;;;;;7373040;19;20409;-77
2022/05/07 11:58:46;;;;;;;1.25;1.10;;;27.30;56.20;;;;;;7375345;19;20337;-77
2022/05/07 12:01:24;;;;;;;1.30;1.20;;;27.50;55.50;;;;;;7368007;19;20416;-77
2022/05/07 12:03:51;;;;;;;1.08;1.00;;;27.40;52.70;;;;;;7370968;19;20323;-76
2022/05/07 12:06:28;;;;;;;1.15;1.05;;;27.40;52.00;;;;;;7369482;19;21198;-78
2022/05/07 12:08:54;;;;;;;1.98;1.10;;;27.30;52.80;;;;;;7375167;19;20320;-80
2022/05/07 12:11:20;;;;;;;1.37;1.27;;;26.50;52.40;;;;;;7350575;19;20347;-77
2022/05/07 12:13:46;;;;;;;2.58;2.17;;;26.30;53.00;;;;;;7375831;19;20369;-76
2022/05/07 12:18:56;;;;;;;1.33;1.07;;;26.60;55.00;;;;;;7373260;19;21289;-76
2022/05/07 12:29:48;;;;;;;2.80;1.15;;;26.90;54.30;;;;;;7367458;19;20344;-77
2022/05/07 12:29:52;;;;;;;1.20;1.10;;;26.70;53.20;;;;;;7372093;19;20876;-77
2022/05/07 12:32:18;;;;;;;1.50;1.40;;;27.10;53.90;;;;;;7267572;19;2004554;-78
2022/05/07 12:34:44;;;;;;;1.17;1.17;;;27.60;52.30;;;;;;7370770;19;20349;-77
2022/05/07 12:37:09;;;;;;;2.20;1.10;;;27.90;52.00;;;;;;7368135;19;20801;-79
2022/05/07 12:39:36;;;;;;;1.15;1.02;;;27.90;50.60;;;;;;7375210;19;20325;-80
2022/05/07 12:42:05;;;;;;;1.52;1.20;;;28.20;51.80;;;;;;7370919;19;20483;-78
2022/05/07 12:44:31;;;;;;;2.25;1.00;;;28.30;50.50;;;;;;7371187;19;20359;-77
2022/05/07 12:46:56;;;;;;;1.27;1.17;;;28.50;51.40;;;;;;7370589;19;20337;-77
2022/05/07 12:49:22;;;;;;;1.10;1.10;;;29.10;52.00;;;;;;7369696;19;20337;-78
2022/05/07 12:51:49;;;;;;;1.20;1.10;;;28.80;51.80;;;;;;7364487;19;20367;-77
2022/05/07 12:54:14;;;;;;;1.10;1.00;;;28.50;51.40;;;;;;7373309;19;20332;-77
2022/05/07 12:56:40;;;;;;;1.23;1.10;;;28.50;52.80;;;;;;7371542;19;20355;-77
2022/05/07 12:59:05;;;;;;;1.25;1.17;;;28.60;50.70;;;;;;7376807;19;20357;-76
2022/05/07 13:01:31;;;;;;;1.50;1.40;;;27.70;47.20;;;;;;7372994;19;21192;-76
2022/05/07 13:03:57;;;;;;;1.90;1.20;;;27.60;50.60;;;;;;7373358;19;20424;-76
2022/05/07 13:06:23;;;;;;;1.10;1.00;;;28.00;52.40;;;;;;7374342;19;20345;-76
2022/05/07 13:08:48;;;;;;;2.53;1.13;;;29.00;50.00;;;;;;7375889;19;20356;-77
2022/05/07 13:11:14;;;;;;;1.70;1.00;;;29.90;49.80;;;;;;7370063;19;21038;-79
2022/05/07 13:13:40;;;;;;;1.50;1.20;;;29.60;46.40;;;;;;7376179;19;20361;-79
2022/05/07 13:16:05;;;;;;;0.97;0.97;;;28.70;46.20;;;;;;7372793;19;20355;-76
2022/05/07 13:18:31;;;;;;;1.25;1.10;;;28.60;45.90;;;;;;7375049;19;20351;-76
2022/05/07 13:20:56;;;;;;;1.48;1.10;;;27.80;47.20;;;;;;7372418;19;20340;-76
2022/05/07 13:23:22;;;;;;;2.10;1.55;;;28.30;48.70;;;;;;7373795;19;20365;-76
2022/05/07 13:25:47;;;;;;;1.27;1.13;;;29.50;49.60;;;;;;7376392;19;20342;-77
2022/05/07 13:28:13;;;;;;;2.00;1.13;;;29.00;43.90;;;;;;7375245;19;20885;-77
2022/05/07 13:30:39;;;;;;;2.00;1.17;;;28.20;43.50;;;;;;7372615;19;20343;-76
2022/05/07 13:33:04;;;;;;;1.23;1.13;;;28.90;46.50;;;;;;7372159;19;20431;-76
2022/05/07 13:35:30;;;;;;;2.17;1.00;;;28.70;46.20;;;;;;7367477;19;20352;-76
2022/05/07 13:37:56;;;;;;;1.20;1.10;;;28.30;45.00;;;;;;7374144;19;20359;-78